createdAt,value
2018-10-17T00:04:10.930Z,10.30
2018-10-17T00:09:13.472Z,11.47
2018-10-17T00:14:15.979Z,11.70
2018-10-17T00:19:18.506Z,10.57
2018-10-17T00:24:21.027Z,10.90
2018-10-17T00:29:23.618Z,11.10
2018-10-17T00:34:26.251Z,11.90
2018-10-17T00:39:28.783Z,10.87
2018-10-17T00:44:31.305Z,11.37
2018-10-17T00:49:33.924Z,11.80
2018-10-17T00:54:36.447Z,10.87
2018-10-17T00:59:38.963Z,10.63
2018-10-17T01:04:41.487Z,10.03
2018-10-17T01:09:43.996Z,10.33
2018-10-17T01:14:46.594Z,10.70
2018-10-17T01:19:49.126Z,9.87
2018-10-17T01:24:51.674Z,9.97
2018-10-17T01:29:54.270Z,10.00
2018-10-17T01:34:56.795Z,10.00
2018-10-17T01:39:59.364Z,10.27
2018-10-17T01:45:02.027Z,10.53
2018-10-17T01:50:05.554Z,10.40
2018-10-17T01:55:08.225Z,10.47
2018-10-17T02:00:10.728Z,9.73
2018-10-17T02:05:13.297Z,10.07
2018-10-17T02:10:15.804Z,10.30
2018-10-17T02:15:18.316Z,10.07
2018-10-17T02:20:20.843Z,10.03
2018-10-17T02:25:23.351Z,10.80
2018-10-17T02:30:25.859Z,10.07
2018-10-17T02:35:28.373Z,11.10
2018-10-17T02:40:30.967Z,11.27
2018-10-17T02:45:33.459Z,11.33
2018-10-17T02:50:35.998Z,10.63
2018-10-17T02:55:38.552Z,10.63
2018-10-17T03:00:41.344Z,11.87
2018-10-17T03:05:43.844Z,10.53
2018-10-17T03:10:46.414Z,11.37
2018-10-17T03:15:49.068Z,11.13
2018-10-17T03:20:51.752Z,10.77
2018-10-17T03:25:54.275Z,10.87
2018-10-17T03:30:56.833Z,10.70
2018-10-17T03:35:59.466Z,11.47
2018-10-17T03:41:01.987Z,10.23
2018-10-17T03:46:04.918Z,10.97
2018-10-17T03:51:07.499Z,11.23
2018-10-17T03:56:10.107Z,11.87
2018-10-17T04:01:12.640Z,13.03
2018-10-17T04:06:15.176Z,12.77
2018-10-17T04:11:17.750Z,13.17
2018-10-17T04:16:20.293Z,12.43
2018-10-17T04:21:22.833Z,12.50
2018-10-17T04:26:25.532Z,12.87
2018-10-17T04:31:28.195Z,12.50
2018-10-17T04:36:30.730Z,13.73
2018-10-17T04:41:33.245Z,12.90
2018-10-17T04:46:36.163Z,13.70
2018-10-17T04:51:38.781Z,14.03
2018-10-17T04:56:41.361Z,14.20
2018-10-17T05:01:44.608Z,14.40
2018-10-17T05:06:47.199Z,14.03
2018-10-17T05:11:49.687Z,13.33
2018-10-17T05:16:52.261Z,13.10
2018-10-17T05:21:54.756Z,13.87
2018-10-17T05:26:57.381Z,13.10
2018-10-17T05:31:59.907Z,13.03
2018-10-17T05:37:02.610Z,13.87
2018-10-17T05:42:05.404Z,14.17
2018-10-17T05:47:07.989Z,12.67
2018-10-17T05:52:10.574Z,13.57
2018-10-17T05:57:13.095Z,13.53
2018-10-17T06:02:20.510Z,14.23
2018-10-17T06:07:23.410Z,14.43
2018-10-17T06:12:26.740Z,13.37
2018-10-17T06:17:29.287Z,13.50
2018-10-17T06:22:31.883Z,13.50
2018-10-17T06:27:34.482Z,14.10
2018-10-17T06:32:37.124Z,15.03
2018-10-17T06:37:39.702Z,14.77
2018-10-17T06:42:42.268Z,14.47
2018-10-17T06:47:44.799Z,15.90
2018-10-17T06:52:47.345Z,15.47
2018-10-17T06:57:50.936Z,15.23
2018-10-17T07:02:53.488Z,14.50
2018-10-17T07:07:56.036Z,15.47
2018-10-17T07:12:58.581Z,14.63
2018-10-17T07:18:01.207Z,13.73
2018-10-17T07:23:03.865Z,12.67
2018-10-17T07:28:06.363Z,14.20
2018-10-17T07:33:09.262Z,14.27
2018-10-17T07:38:11.770Z,15.07
2018-10-17T07:43:14.328Z,16.40
2018-10-17T07:48:16.967Z,16.73
2018-10-17T07:53:19.526Z,16.13
2018-10-17T07:58:22.168Z,13.97
2018-10-17T08:03:24.693Z,12.40
2018-10-17T08:08:27.215Z,12.40
2018-10-17T08:13:29.762Z,11.57
2018-10-17T08:18:32.268Z,12.00
2018-10-17T08:23:34.899Z,13.37
2018-10-17T08:28:37.433Z,13.57
2018-10-17T08:33:39.939Z,12.77
2018-10-17T08:38:42.500Z,13.43
2018-10-17T08:43:45.019Z,13.30
2018-10-17T08:48:47.567Z,13.03
2018-10-17T08:53:50.104Z,12.23
2018-10-17T08:58:52.928Z,13.10
2018-10-17T09:03:55.447Z,13.27
2018-10-17T09:08:58.055Z,13.37
2018-10-17T09:14:00.587Z,13.50
2018-10-17T09:19:03.158Z,14.20
2018-10-17T09:24:05.731Z,14.40
2018-10-17T09:29:08.231Z,13.00
2018-10-17T09:34:10.817Z,13.33
2018-10-17T09:39:13.302Z,14.53
2018-10-17T09:44:15.800Z,14.77
2018-10-17T09:49:18.339Z,15.80
2018-10-17T09:54:20.839Z,14.17
2018-10-17T09:59:23.359Z,14.10
2018-10-17T10:04:25.873Z,14.70
2018-10-17T10:09:28.399Z,13.97
2018-10-17T10:14:30.908Z,11.30
2018-10-17T10:19:33.444Z,12.10
2018-10-17T10:24:36.058Z,12.17
2018-10-17T10:29:38.552Z,13.50
2018-10-17T10:34:41.066Z,11.67
2018-10-17T10:39:43.596Z,10.27
2018-10-17T10:44:46.210Z,11.20
2018-10-17T10:49:48.706Z,12.67
2018-10-17T10:54:51.266Z,12.30
2018-10-17T10:59:53.886Z,12.07
2018-10-17T11:04:56.535Z,10.27
2018-10-17T11:09:59.028Z,11.93
2018-10-17T11:15:01.829Z,9.63
2018-10-17T11:20:05.240Z,11.40
2018-10-17T11:25:08.396Z,10.93
2018-10-17T11:30:11.428Z,11.45
2018-10-17T11:35:14.154Z,11.10
2018-10-17T11:40:16.667Z,11.20
2018-10-17T11:45:20.919Z,10.18
2018-10-17T11:50:23.551Z,10.75
2018-10-17T11:55:26.185Z,10.82
2018-10-17T12:00:28.691Z,8.58
2018-10-17T12:05:31.681Z,10.35
2018-10-17T12:10:33.834Z,10.05
2018-10-17T12:15:41.162Z,9.83
2018-10-17T12:20:43.796Z,9.53
2018-10-17T12:25:46.364Z,8.78
2018-10-17T12:30:48.914Z,8.63
2018-10-17T12:35:51.462Z,7.70
2018-10-17T12:40:54.160Z,6.90
2018-10-17T12:45:56.531Z,8.08
2018-10-17T12:50:59.090Z,7.80
2018-10-17T12:56:01.688Z,7.15
2018-10-17T13:01:04.830Z,6.12
2018-10-17T13:06:07.624Z,5.60
2018-10-17T13:11:10.266Z,5.35
2018-10-17T13:16:12.723Z,5.45
2018-10-17T13:21:15.283Z,5.03
2018-10-17T13:26:17.860Z,5.05
2018-10-17T13:31:20.420Z,5.15
2018-10-17T13:36:22.958Z,4.80
2018-10-17T13:41:25.511Z,4.20
2018-10-17T13:46:28.140Z,5.08
2018-10-17T13:51:30.666Z,4.62
2018-10-17T13:56:33.205Z,4.35
2018-10-17T14:01:36.051Z,4.67
2018-10-17T14:06:38.655Z,5.12
2018-10-17T14:11:41.282Z,4.95
2018-10-17T14:16:43.746Z,4.47
2018-10-17T14:21:46.266Z,5.37
2018-10-17T14:26:48.762Z,4.75
2018-10-17T14:31:51.313Z,4.22
2018-10-17T14:36:53.874Z,5.10
2018-10-17T14:41:56.477Z,5.00
2018-10-17T14:47:01.324Z,4.78
2018-10-17T14:52:04.223Z,5.60
2018-10-17T14:57:06.827Z,7.35
2018-10-17T15:02:09.381Z,7.00
2018-10-17T15:07:11.962Z,6.80
2018-10-17T15:12:14.506Z,6.03
2018-10-17T15:17:17.021Z,6.67
2018-10-17T15:22:19.544Z,6.37
2018-10-17T15:27:22.111Z,5.50
2018-10-17T15:32:24.906Z,6.87
2018-10-17T15:37:27.460Z,5.40
2018-10-17T15:42:29.989Z,5.57
2018-10-17T15:47:32.533Z,5.57
2018-10-17T15:52:35.064Z,5.87
2018-10-17T15:57:37.634Z,5.80
2018-10-17T16:02:40.230Z,5.00
2018-10-17T16:07:42.795Z,5.40
2018-10-17T16:12:45.399Z,5.73
2018-10-17T16:17:48.162Z,5.93
2018-10-17T16:22:51.654Z,5.77
2018-10-17T16:27:59.798Z,7.30
2018-10-17T16:33:02.365Z,7.57
2018-10-17T16:38:05.043Z,7.93
2018-10-17T16:43:07.638Z,7.30
2018-10-17T16:48:10.211Z,7.50
2018-10-17T16:53:12.729Z,7.37
2018-10-17T16:58:15.398Z,7.50
2018-10-17T17:03:17.899Z,7.73
2018-10-17T17:08:20.385Z,9.07
2018-10-17T17:13:22.917Z,7.80
2018-10-17T17:18:25.477Z,8.03
2018-10-17T17:23:28.144Z,10.03
2018-10-17T17:28:30.692Z,10.00
2018-10-17T17:33:33.282Z,9.83
2018-10-17T17:38:35.836Z,8.90
2018-10-17T17:43:38.448Z,9.63
2018-10-17T17:48:41.092Z,10.17
2018-10-17T17:53:43.675Z,9.73
2018-10-17T17:58:46.546Z,10.47
2018-10-17T18:03:49.142Z,10.13
2018-10-17T18:08:51.847Z,9.70
2018-10-17T18:13:55.767Z,9.77
2018-10-17T18:18:58.377Z,9.90
2018-10-17T18:24:00.908Z,10.13
2018-10-17T18:29:03.580Z,9.90
2018-10-17T18:34:06.235Z,10.00
2018-10-17T18:39:09.123Z,9.23
2018-10-17T18:44:11.693Z,10.37
2018-10-17T18:49:14.259Z,11.40
2018-10-17T18:54:16.855Z,11.60
2018-10-17T18:59:19.534Z,12.70
2018-10-17T19:04:22.235Z,12.00
2018-10-17T19:09:24.931Z,11.37
2018-10-17T19:14:27.616Z,13.27
2018-10-17T19:19:30.340Z,13.57
2018-10-17T19:24:33.156Z,13.20
2018-10-17T19:29:36.312Z,12.20
2018-10-17T19:34:38.873Z,12.20
2018-10-17T19:39:41.514Z,11.23
2018-10-17T19:44:44.376Z,11.13
2018-10-17T19:49:46.910Z,12.67
2018-10-17T19:54:49.521Z,15.00
2018-10-17T19:59:52.282Z,13.27
2018-10-17T20:04:55.006Z,12.63
2018-10-17T20:09:57.724Z,12.40
2018-10-17T20:15:00.321Z,12.20
2018-10-17T20:20:03.004Z,12.17
2018-10-17T20:25:06.049Z,12.27
2018-10-17T20:30:09.419Z,12.20
2018-10-17T20:35:12.086Z,12.27
2018-10-17T20:40:14.694Z,13.33
2018-10-17T20:45:17.367Z,11.87
2018-10-17T20:50:19.965Z,11.93
2018-10-17T20:55:22.497Z,11.50
2018-10-17T21:00:25.155Z,11.77
2018-10-17T21:05:27.691Z,10.90
2018-10-17T21:10:31.487Z,11.23
2018-10-17T21:15:34.456Z,11.23
2018-10-17T21:20:37.284Z,11.57
2018-10-17T21:25:39.835Z,11.27
2018-10-17T21:30:42.579Z,11.33
2018-10-17T21:35:45.155Z,12.17
2018-10-17T21:40:47.674Z,11.70
2018-10-17T21:45:50.239Z,13.10
2018-10-17T21:50:52.867Z,13.27
2018-10-17T21:55:55.627Z,13.77
2018-10-17T22:00:58.171Z,14.20
2018-10-17T22:06:00.740Z,14.73
2018-10-17T22:11:03.367Z,13.57
2018-10-17T22:16:05.908Z,13.67
2018-10-17T22:21:08.485Z,14.00
2018-10-17T22:26:11.082Z,15.47
2018-10-17T22:31:13.543Z,15.37
2018-10-17T22:36:16.151Z,15.47
2018-10-17T22:41:18.839Z,15.27
2018-10-17T22:46:21.346Z,15.07
2018-10-17T22:51:23.904Z,15.87
2018-10-17T22:56:26.440Z,16.47
2018-10-17T23:01:28.999Z,15.57
2018-10-17T23:06:31.652Z,15.50
2018-10-17T23:11:34.307Z,15.03
2018-10-17T23:16:37.135Z,15.73
2018-10-17T23:21:40.462Z,15.23
2018-10-17T23:26:43.043Z,16.40
2018-10-17T23:31:45.556Z,16.20
2018-10-17T23:36:48.083Z,17.13
2018-10-17T23:41:50.599Z,17.70
2018-10-17T23:46:53.997Z,16.53
2018-10-17T23:51:56.546Z,15.27
2018-10-17T23:56:59.075Z,15.53
